createdAt,value
2024-01-20T00:00:15.889Z,-2.18
2024-01-20T00:02:44.676Z,-2.19
2024-01-20T00:05:13.420Z,-2.23
2024-01-20T00:07:41.566Z,-2.25
2024-01-20T00:10:15.016Z,-2.27
2024-01-20T00:12:43.872Z,-2.27
2024-01-20T00:15:12.871Z,-2.30
2024-01-20T00:17:41.354Z,-2.30
2024-01-20T00:20:11.066Z,-2.31
2024-01-20T00:22:38.866Z,-2.33
2024-01-20T00:25:06.383Z,-2.33
2024-01-20T00:27:34.674Z,-2.33
2024-01-20T00:30:02.235Z,-2.34
2024-01-20T00:32:29.893Z,-2.34
2024-01-20T00:35:06.045Z,-2.35
2024-01-20T00:37:36.602Z,-2.37
2024-01-20T00:40:05.832Z,-2.37
2024-01-20T00:42:33.224Z,-2.38
2024-01-20T00:45:00.337Z,-2.38
2024-01-20T00:47:27.137Z,-2.39
2024-01-20T00:49:54.052Z,-2.41
2024-01-20T00:52:20.952Z,-2.43
2024-01-20T00:54:47.960Z,-2.45
2024-01-20T00:57:14.826Z,-2.46
2024-01-20T00:59:41.686Z,-2.48
2024-01-20T01:02:08.874Z,-2.49
2024-01-20T01:04:35.793Z,-2.51
2024-01-20T01:07:02.698Z,-2.52
2024-01-20T01:09:29.668Z,-2.53
2024-01-20T01:11:56.550Z,-2.55
2024-01-20T01:14:23.563Z,-2.56
2024-01-20T01:16:50.570Z,-2.59
2024-01-20T01:19:17.488Z,-2.62
2024-01-20T01:21:44.426Z,-2.62
2024-01-20T01:24:12.318Z,-2.64
2024-01-20T01:26:39.386Z,-2.66
2024-01-20T01:29:07.070Z,-2.68
2024-01-20T01:31:34.405Z,-2.69
2024-01-20T01:34:01.389Z,-2.70
2024-01-20T01:36:28.282Z,-2.71
2024-01-20T01:38:55.096Z,-2.72
2024-01-20T01:41:22.092Z,-2.74
2024-01-20T01:43:49.031Z,-2.75
2024-01-20T01:46:15.993Z,-2.75
2024-01-20T01:48:42.929Z,-2.76
2024-01-20T01:51:10.177Z,-2.78
2024-01-20T01:53:37.532Z,-2.79
2024-01-20T01:56:06.417Z,-2.80
2024-01-20T01:58:34.059Z,-2.81
2024-01-20T02:01:01.674Z,-2.82
2024-01-20T02:03:28.906Z,-2.81
2024-01-20T02:05:56.121Z,-2.83
2024-01-20T02:08:24.788Z,-2.83
2024-01-20T02:10:51.946Z,-2.84
2024-01-20T02:13:19.702Z,-2.85
2024-01-20T02:15:47.160Z,-2.87
2024-01-20T02:18:14.153Z,-2.88
2024-01-20T02:20:41.224Z,-2.91
2024-01-20T02:23:08.124Z,-2.92
2024-01-20T02:25:34.932Z,-2.93
2024-01-20T02:28:01.760Z,-2.94
2024-01-20T02:30:28.717Z,-2.92
2024-01-20T02:32:55.805Z,-2.92
2024-01-20T02:35:22.862Z,-2.93
2024-01-20T02:37:49.827Z,-2.93
2024-01-20T02:40:17.402Z,-2.94
2024-01-20T02:42:44.323Z,-2.93
2024-01-20T02:45:11.343Z,-2.95
2024-01-20T02:47:38.840Z,-2.95
2024-01-20T02:50:06.740Z,-2.95
2024-01-20T02:52:34.340Z,-2.96
2024-01-20T02:55:01.217Z,-2.96
2024-01-20T02:57:28.173Z,-2.97
2024-01-20T02:59:55.084Z,-2.97
2024-01-20T03:02:22.031Z,-2.97
2024-01-20T03:04:48.890Z,-3.00
2024-01-20T03:07:15.978Z,-3.01
2024-01-20T03:09:42.969Z,-3.02
2024-01-20T03:12:09.963Z,-3.04
2024-01-20T03:14:37.066Z,-3.04
2024-01-20T03:17:04.072Z,-3.04
2024-01-20T03:19:30.988Z,-3.04
2024-01-20T03:21:57.872Z,-3.06
2024-01-20T03:24:25.810Z,-3.08
2024-01-20T03:26:56.526Z,-3.09
2024-01-20T03:29:24.932Z,-3.10
2024-01-20T03:31:52.896Z,-3.10
2024-01-20T03:34:20.246Z,-3.11
2024-01-20T03:36:48.297Z,-3.15
2024-01-20T03:39:15.100Z,-3.15
2024-01-20T03:41:42.009Z,-3.15
2024-01-20T03:44:09.433Z,-3.16
2024-01-20T03:46:36.268Z,-3.16
2024-01-20T03:49:03.928Z,-3.18
2024-01-20T03:51:31.254Z,-3.18
2024-01-20T03:53:58.164Z,-3.16
2024-01-20T03:56:24.967Z,-3.17
2024-01-20T03:58:51.784Z,-3.16
2024-01-20T04:01:18.736Z,-3.17
2024-01-20T04:03:45.636Z,-3.17
2024-01-20T04:06:12.669Z,-3.16
2024-01-20T04:08:39.496Z,-3.18
2024-01-20T04:11:06.615Z,-3.17
2024-01-20T04:13:33.481Z,-3.19
2024-01-20T04:16:00.344Z,-3.20
2024-01-20T04:18:27.387Z,-3.19
2024-01-20T04:20:54.337Z,-3.21
2024-01-20T04:23:21.244Z,-3.22
2024-01-20T04:25:48.623Z,-3.21
2024-01-20T04:28:15.448Z,-3.22
2024-01-20T04:30:42.457Z,-3.23
2024-01-20T04:33:09.408Z,-3.26
2024-01-20T04:35:36.324Z,-3.28
2024-01-20T04:38:03.367Z,-3.26
2024-01-20T04:40:30.454Z,-3.26
2024-01-20T04:42:57.349Z,-3.28
2024-01-20T04:45:24.336Z,-3.28
2024-01-20T04:47:51.316Z,-3.28
2024-01-20T04:50:18.212Z,-3.27
2024-01-20T04:52:45.048Z,-3.29
2024-01-20T04:55:11.986Z,-3.29
2024-01-20T04:57:38.914Z,-3.30
2024-01-20T05:00:07.315Z,-3.29
2024-01-20T05:02:36.934Z,-3.27
2024-01-20T05:05:04.821Z,-3.28
2024-01-20T05:07:31.838Z,-3.30
2024-01-20T05:09:58.891Z,-3.29
2024-01-20T05:12:26.758Z,-3.31
2024-01-20T05:14:54.402Z,-3.32
2024-01-20T05:17:21.537Z,-3.34
2024-01-20T05:19:48.821Z,-3.33
2024-01-20T05:22:17.834Z,-3.34
2024-01-20T05:24:44.869Z,-3.33
2024-01-20T05:27:12.264Z,-3.34
2024-01-20T05:29:39.217Z,-3.35
2024-01-20T05:32:06.249Z,-3.36
2024-01-20T05:34:33.434Z,-3.36
2024-01-20T05:37:00.525Z,-3.36
2024-01-20T05:39:27.478Z,-3.38
2024-01-20T05:41:54.392Z,-3.40
2024-01-20T05:44:21.548Z,-3.39
2024-01-20T05:46:48.423Z,-3.42
2024-01-20T05:49:15.644Z,-3.42
2024-01-20T05:51:42.589Z,-3.43
2024-01-20T05:54:09.682Z,-3.44
2024-01-20T05:56:36.812Z,-3.46
2024-01-20T05:59:04.062Z,-3.48
2024-01-20T06:01:31.237Z,-3.47
2024-01-20T06:03:58.390Z,-3.46
2024-01-20T06:06:25.742Z,-3.46
2024-01-20T06:08:52.764Z,-3.43
2024-01-20T06:11:19.623Z,-3.42
2024-01-20T06:13:46.716Z,-3.39
2024-01-20T06:16:14.078Z,-3.40
2024-01-20T06:18:41.027Z,-3.39
2024-01-20T06:21:09.478Z,-3.38
2024-01-20T06:23:37.029Z,-3.37
2024-01-20T06:26:04.422Z,-3.36
2024-01-20T06:28:31.328Z,-3.35
2024-01-20T06:30:58.188Z,-3.34
2024-01-20T06:33:25.350Z,-3.34
2024-01-20T06:35:52.572Z,-3.34
2024-01-20T06:38:19.673Z,-3.33
2024-01-20T06:40:46.505Z,-3.34
2024-01-20T06:43:13.334Z,-3.35
2024-01-20T06:45:41.051Z,-3.36
2024-01-20T06:48:09.036Z,-3.38
2024-01-20T06:50:41.071Z,-3.36
2024-01-20T06:53:07.896Z,-3.37
2024-01-20T06:55:34.915Z,-3.37
2024-01-20T06:58:02.039Z,-3.35
2024-01-20T07:00:28.896Z,-3.34
2024-01-20T07:02:56.113Z,-3.35
2024-01-20T07:05:23.011Z,-3.36
2024-01-20T07:07:49.913Z,-3.36
2024-01-20T07:10:16.993Z,-3.34
2024-01-20T07:12:43.951Z,-3.30
2024-01-20T07:15:11.470Z,-3.32
2024-01-20T07:17:38.636Z,-3.31
2024-01-20T07:20:05.978Z,-3.32
2024-01-20T07:22:33.127Z,-3.30
2024-01-20T07:25:00.275Z,-3.29
2024-01-20T07:27:27.359Z,-3.29
2024-01-20T07:29:54.235Z,-3.27
2024-01-20T07:32:21.131Z,-3.27
2024-01-20T07:34:48.115Z,-3.24
2024-01-20T07:37:16.455Z,-3.23
2024-01-20T07:39:44.026Z,-3.17
2024-01-20T07:42:11.870Z,-3.15
2024-01-20T07:44:38.919Z,-3.12
2024-01-20T07:47:05.933Z,-3.08
2024-01-20T07:49:33.294Z,-3.01
2024-01-20T07:52:00.169Z,-2.96
2024-01-20T07:54:27.208Z,-2.89
2024-01-20T07:56:54.046Z,-2.82
2024-01-20T07:59:21.069Z,-2.75
2024-01-20T08:01:48.213Z,-2.67
2024-01-20T08:04:16.116Z,-2.62
2024-01-20T08:06:43.318Z,-2.57
2024-01-20T08:09:11.674Z,-2.51
2024-01-20T08:11:38.709Z,-2.43
2024-01-20T08:14:05.741Z,-2.36
2024-01-20T08:16:32.752Z,-2.29
2024-01-20T08:19:00.068Z,-2.22
2024-01-20T08:21:27.111Z,-2.15
2024-01-20T08:23:54.333Z,-2.04
2024-01-20T08:26:21.293Z,-1.96
2024-01-20T08:28:48.335Z,-1.89
2024-01-20T08:31:15.448Z,-1.84
2024-01-20T08:33:43.894Z,-1.77
2024-01-20T08:36:11.289Z,-1.75
2024-01-20T08:38:38.338Z,-1.74
2024-01-20T08:41:12.463Z,-1.76
2024-01-20T08:43:46.049Z,-1.74
2024-01-20T08:46:13.775Z,-1.73
2024-01-20T08:48:41.867Z,-1.69
2024-01-20T08:51:09.012Z,-1.64
2024-01-20T08:53:35.937Z,-1.60
2024-01-20T08:56:05.090Z,-1.57
2024-01-20T08:58:32.153Z,-1.52
2024-01-20T09:00:59.327Z,-1.47
2024-01-20T09:03:26.589Z,-1.46
2024-01-20T09:05:53.727Z,-1.44
2024-01-20T09:08:20.613Z,-1.40
2024-01-20T09:10:47.514Z,-1.38
2024-01-20T09:13:14.387Z,-1.37
2024-01-20T09:15:41.392Z,-1.34
2024-01-20T09:18:09.218Z,-1.33
2024-01-20T09:20:36.532Z,-1.26
2024-01-20T09:23:04.614Z,-1.25
2024-01-20T09:25:31.474Z,-1.21
2024-01-20T09:27:58.402Z,-1.19
2024-01-20T09:30:25.610Z,-1.15
2024-01-20T09:32:52.809Z,-1.13
2024-01-20T09:35:19.771Z,-1.12
2024-01-20T09:37:46.670Z,-1.10
2024-01-20T09:40:13.899Z,-1.03
2024-01-20T09:42:41.519Z,-0.96
2024-01-20T09:45:08.870Z,-0.92
2024-01-20T09:47:36.659Z,-0.79
2024-01-20T09:50:05.684Z,-0.62
2024-01-20T09:52:36.285Z,-0.43
2024-01-20T09:55:20.681Z,-0.28
2024-01-20T09:57:50.293Z,-0.16
2024-01-20T10:00:17.952Z,-0.11
2024-01-20T10:02:48.176Z,-0.12
2024-01-20T10:05:16.678Z,-0.05
2024-01-20T10:07:44.403Z,0.03
2024-01-20T10:10:21.852Z,0.07
2024-01-20T10:12:53.005Z,0.14
2024-01-20T10:15:28.858Z,0.31
2024-01-20T10:17:58.702Z,0.37
2024-01-20T10:20:27.166Z,0.36
2024-01-20T10:22:54.310Z,0.35
2024-01-20T10:25:21.636Z,0.36
2024-01-20T10:27:50.855Z,0.44
2024-01-20T10:30:22.425Z,0.49
2024-01-20T10:33:03.317Z,0.53
2024-01-20T10:35:35.868Z,0.49
2024-01-20T10:38:08.811Z,0.51
2024-01-20T10:40:40.770Z,0.55
2024-01-20T10:43:17.153Z,0.59
2024-01-20T10:46:19.548Z,0.59
2024-01-20T10:48:52.102Z,0.59
2024-01-20T10:51:28.510Z,0.59
2024-01-20T10:53:58.827Z,0.72
2024-01-20T10:56:27.384Z,0.69
2024-01-20T10:59:10.634Z,0.64
2024-01-20T11:01:42.677Z,0.65
2024-01-20T11:04:09.882Z,0.66
2024-01-20T11:06:37.565Z,0.68
2024-01-20T11:09:05.441Z,0.74
2024-01-20T11:11:36.804Z,0.81
2024-01-20T11:14:04.140Z,0.83
2024-01-20T11:16:33.564Z,0.94
2024-01-20T11:19:13.514Z,1.03
2024-01-20T11:21:40.942Z,1.09
2024-01-20T11:24:08.495Z,1.21
2024-01-20T11:26:37.672Z,1.19
2024-01-20T11:29:09.793Z,1.08
2024-01-20T11:31:37.053Z,1.15
2024-01-20T11:34:07.526Z,1.22
2024-01-20T11:36:35.764Z,1.41
2024-01-20T11:39:04.854Z,1.56
2024-01-20T11:41:31.875Z,1.61
2024-01-20T11:43:58.758Z,1.59
2024-01-20T11:46:26.055Z,1.67
2024-01-20T11:48:53.896Z,1.61
2024-01-20T11:51:22.234Z,1.56
2024-01-20T11:53:49.941Z,1.51
2024-01-20T11:56:17.806Z,1.56
2024-01-20T11:58:45.060Z,1.69
2024-01-20T12:01:15.428Z,1.86
2024-01-20T12:03:42.936Z,2.01
2024-01-20T12:06:13.119Z,1.97
2024-01-20T12:08:43.536Z,2.00
2024-01-20T12:11:24.271Z,1.94
2024-01-20T12:13:51.367Z,1.88
2024-01-20T12:16:18.864Z,1.89
2024-01-20T12:18:46.199Z,1.85
2024-01-20T12:21:13.567Z,1.77
2024-01-20T12:23:41.448Z,1.76
2024-01-20T12:26:15.642Z,1.75
2024-01-20T12:28:48.083Z,1.70
2024-01-20T12:31:19.251Z,1.78
2024-01-20T12:33:48.636Z,1.78
2024-01-20T12:36:15.564Z,1.74
2024-01-20T12:38:42.451Z,1.69
2024-01-20T12:41:09.623Z,1.58
2024-01-20T12:43:36.697Z,1.56
2024-01-20T12:46:03.629Z,1.50
2024-01-20T12:48:30.686Z,1.58
2024-01-20T12:50:58.509Z,1.60
2024-01-20T12:53:25.526Z,1.61
2024-01-20T12:55:52.630Z,1.67
2024-01-20T12:58:19.523Z,1.68
2024-01-20T13:00:46.647Z,1.66
2024-01-20T13:03:13.648Z,1.72
2024-01-20T13:05:40.866Z,1.77
2024-01-20T13:08:08.149Z,1.78
2024-01-20T13:10:35.112Z,1.68
2024-01-20T13:13:02.496Z,1.67
2024-01-20T13:15:29.576Z,1.72
2024-01-20T13:17:56.654Z,1.68
2024-01-20T13:20:23.679Z,1.65
2024-01-20T13:22:50.770Z,1.66
2024-01-20T13:25:17.760Z,1.76
2024-01-20T13:27:44.804Z,1.92
2024-01-20T13:30:13.124Z,2.09
2024-01-20T13:32:40.905Z,2.22
2024-01-20T13:35:08.749Z,2.34
2024-01-20T13:37:35.726Z,2.35
2024-01-20T13:40:05.793Z,2.42
2024-01-20T13:42:33.007Z,2.36
2024-01-20T13:45:00.503Z,2.43
2024-01-20T13:47:27.658Z,2.45
2024-01-20T13:49:54.668Z,2.38
2024-01-20T13:52:22.042Z,2.30
2024-01-20T13:54:49.417Z,2.16
2024-01-20T13:57:16.531Z,2.09
2024-01-20T13:59:43.668Z,2.03
2024-01-20T14:02:10.543Z,1.94
2024-01-20T14:04:37.706Z,1.97
2024-01-20T14:07:06.338Z,1.97
2024-01-20T14:09:34.032Z,1.95
2024-01-20T14:12:01.219Z,1.94
2024-01-20T14:14:28.861Z,1.82
2024-01-20T14:16:57.558Z,1.74
2024-01-20T14:19:26.254Z,1.65
2024-01-20T14:21:53.487Z,1.62
2024-01-20T14:24:20.815Z,1.59
2024-01-20T14:26:48.405Z,1.60
2024-01-20T14:29:16.414Z,1.62
2024-01-20T14:31:51.108Z,1.54
2024-01-20T14:34:19.873Z,1.42
2024-01-20T14:36:48.786Z,1.33
2024-01-20T14:39:19.680Z,1.19
2024-01-20T14:41:47.232Z,1.11
2024-01-20T14:44:14.347Z,1.07
2024-01-20T14:46:41.686Z,1.00
2024-01-20T14:49:09.220Z,0.91
2024-01-20T14:51:36.382Z,0.87
2024-01-20T14:54:05.784Z,0.80
2024-01-20T14:56:37.237Z,0.72
2024-01-20T14:59:04.813Z,0.69
2024-01-20T15:01:32.750Z,0.67
2024-01-20T15:04:00.388Z,0.65
2024-01-20T15:06:28.593Z,0.60
2024-01-20T15:08:55.679Z,0.58
2024-01-20T15:11:23.222Z,0.53
2024-01-20T15:13:50.460Z,0.48
2024-01-20T15:16:18.221Z,0.44
2024-01-20T15:18:45.507Z,0.38
2024-01-20T15:21:12.649Z,0.34
2024-01-20T15:23:39.592Z,0.30
2024-01-20T15:26:06.564Z,0.25
2024-01-20T15:28:33.563Z,0.22
2024-01-20T15:31:00.454Z,0.18
2024-01-20T15:33:27.382Z,0.15
2024-01-20T15:35:54.571Z,0.10
2024-01-20T15:38:21.543Z,0.07
2024-01-20T15:40:48.468Z,0.02
2024-01-20T15:43:15.460Z,-0.01
2024-01-20T15:45:42.546Z,-0.06
2024-01-20T15:48:10.340Z,-0.13
2024-01-20T15:50:37.480Z,-0.17
2024-01-20T15:53:04.720Z,-0.22
2024-01-20T15:55:31.718Z,-0.26
2024-01-20T15:57:58.634Z,-0.29
2024-01-20T16:00:26.058Z,-0.34
2024-01-20T16:02:53.662Z,-0.39
2024-01-20T16:05:20.470Z,-0.45
2024-01-20T16:07:47.584Z,-0.51
2024-01-20T16:10:14.623Z,-0.57
2024-01-20T16:12:41.698Z,-0.63
2024-01-20T16:15:12.206Z,-0.69
2024-01-20T16:17:41.547Z,-0.75
2024-01-20T16:20:09.933Z,-0.79
2024-01-20T16:22:36.983Z,-0.85
2024-01-20T16:25:04.271Z,-0.90
2024-01-20T16:27:31.295Z,-0.94
2024-01-20T16:29:58.270Z,-0.97
2024-01-20T16:32:25.491Z,-0.99
2024-01-20T16:34:52.497Z,-0.99
2024-01-20T16:37:19.474Z,-0.99
2024-01-20T16:39:46.405Z,-0.98
2024-01-20T16:42:13.332Z,-0.98
2024-01-20T16:44:40.224Z,-0.98
2024-01-20T16:47:07.043Z,-0.97
2024-01-20T16:49:34.261Z,-1.00
2024-01-20T16:52:03.612Z,-1.00
2024-01-20T16:54:30.885Z,-1.03
2024-01-20T16:56:57.777Z,-1.05
2024-01-20T16:59:24.701Z,-1.07
2024-01-20T17:01:51.985Z,-1.09
2024-01-20T17:04:19.111Z,-1.12
2024-01-20T17:06:46.312Z,-1.16
2024-01-20T17:09:14.704Z,-1.19
2024-01-20T17:11:45.728Z,-1.23
2024-01-20T17:14:17.429Z,-1.28
2024-01-20T17:16:44.643Z,-1.32
2024-01-20T17:19:12.325Z,-1.37
2024-01-20T17:21:39.409Z,-1.40
2024-01-20T17:24:06.436Z,-1.41
2024-01-20T17:26:33.516Z,-1.43
2024-01-20T17:29:01.361Z,-1.45
2024-01-20T17:31:34.199Z,-1.45
2024-01-20T17:34:02.172Z,-1.46
2024-01-20T17:36:29.540Z,-1.48
2024-01-20T17:38:59.468Z,-1.49
2024-01-20T17:41:26.258Z,-1.52
2024-01-20T17:43:53.157Z,-1.54
2024-01-20T17:46:20.012Z,-1.57
2024-01-20T17:48:47.025Z,-1.62
2024-01-20T17:51:14.025Z,-1.65
2024-01-20T17:53:40.897Z,-1.68
2024-01-20T17:56:07.801Z,-1.69
2024-01-20T17:58:35.462Z,-1.72
2024-01-20T18:01:02.856Z,-1.74
2024-01-20T18:03:30.200Z,-1.74
2024-01-20T18:05:57.409Z,-1.76
2024-01-20T18:08:25.578Z,-1.74
2024-01-20T18:10:52.448Z,-1.73
2024-01-20T18:13:19.475Z,-1.72
2024-01-20T18:15:46.647Z,-1.70
2024-01-20T18:18:14.027Z,-1.69
2024-01-20T18:20:41.057Z,-1.67
2024-01-20T18:23:08.001Z,-1.66
2024-01-20T18:25:35.339Z,-1.66
2024-01-20T18:28:02.296Z,-1.66
2024-01-20T18:30:29.193Z,-1.67
2024-01-20T18:32:56.227Z,-1.70
2024-01-20T18:35:23.412Z,-1.74
2024-01-20T18:37:50.664Z,-1.78
2024-01-20T18:40:17.515Z,-1.84
2024-01-20T18:42:47.170Z,-1.88
2024-01-20T18:45:14.475Z,-1.93
2024-01-20T18:47:45.974Z,-1.96
2024-01-20T18:50:14.613Z,-1.99
2024-01-20T18:52:41.796Z,-2.02
2024-01-20T18:55:09.967Z,-2.07
2024-01-20T18:57:37.248Z,-2.08
2024-01-20T19:00:05.760Z,-2.08
2024-01-20T19:02:32.991Z,-2.10
2024-01-20T19:05:00.088Z,-2.11
2024-01-20T19:07:27.146Z,-2.13
2024-01-20T19:09:54.061Z,-2.14
2024-01-20T19:12:21.491Z,-2.14
2024-01-20T19:14:49.240Z,-2.12
2024-01-20T19:17:16.332Z,-2.12
2024-01-20T19:19:46.505Z,-2.12
2024-01-20T19:22:13.649Z,-2.10
2024-01-20T19:24:40.797Z,-2.11
2024-01-20T19:27:11.178Z,-2.12
2024-01-20T19:29:38.282Z,-2.14
2024-01-20T19:32:05.831Z,-2.16
2024-01-20T19:34:33.254Z,-2.17
2024-01-20T19:37:00.420Z,-2.21
2024-01-20T19:39:27.379Z,-2.25
2024-01-20T19:41:54.333Z,-2.28
2024-01-20T19:44:22.621Z,-2.32
2024-01-20T19:46:49.579Z,-2.34
2024-01-20T19:49:19.653Z,-2.37
2024-01-20T19:51:46.650Z,-2.41
2024-01-20T19:54:13.696Z,-2.44
2024-01-20T19:56:47.165Z,-2.43
2024-01-20T19:59:16.929Z,-2.46
2024-01-20T20:01:47.670Z,-2.46
2024-01-20T20:04:18.982Z,-2.43
2024-01-20T20:06:48.013Z,-2.42
2024-01-20T20:09:18.970Z,-2.38
2024-01-20T20:11:46.004Z,-2.35
2024-01-20T20:14:13.738Z,-2.35
2024-01-20T20:16:41.464Z,-2.33
2024-01-20T20:19:09.168Z,-2.37
2024-01-20T20:21:36.182Z,-2.37
2024-01-20T20:24:03.226Z,-2.40
2024-01-20T20:26:31.178Z,-2.41
2024-01-20T20:28:57.956Z,-2.43
2024-01-20T20:31:27.645Z,-2.45
2024-01-20T20:33:55.338Z,-2.47
2024-01-20T20:36:22.593Z,-2.49
2024-01-20T20:38:49.669Z,-2.52
2024-01-20T20:41:16.588Z,-2.55
2024-01-20T20:43:43.639Z,-2.59
2024-01-20T20:46:10.925Z,-2.61
2024-01-20T20:48:37.840Z,-2.64
2024-01-20T20:51:05.103Z,-2.66
2024-01-20T20:53:32.100Z,-2.69
2024-01-20T20:55:59.653Z,-2.71
2024-01-20T20:58:29.749Z,-2.71
2024-01-20T21:00:56.854Z,-2.72
2024-01-20T21:03:23.983Z,-2.75
2024-01-20T21:05:51.127Z,-2.76
2024-01-20T21:08:18.103Z,-2.77
2024-01-20T21:10:45.137Z,-2.79
2024-01-20T21:13:12.079Z,-2.81
2024-01-20T21:15:39.391Z,-2.80
2024-01-20T21:18:06.463Z,-2.78
2024-01-20T21:20:33.397Z,-2.76
2024-01-20T21:23:00.189Z,-2.77
2024-01-20T21:25:27.082Z,-2.75
2024-01-20T21:27:53.918Z,-2.74
2024-01-20T21:30:22.253Z,-2.71
2024-01-20T21:32:49.303Z,-2.68
2024-01-20T21:35:16.400Z,-2.64
2024-01-20T21:37:45.534Z,-2.61
2024-01-20T21:40:13.791Z,-2.57
2024-01-20T21:42:40.770Z,-2.53
2024-01-20T21:45:08.447Z,-2.50
2024-01-20T21:47:35.358Z,-2.46
2024-01-20T21:50:02.349Z,-2.42
2024-01-20T21:52:29.154Z,-2.38
2024-01-20T21:54:57.100Z,-2.34
2024-01-20T21:57:24.186Z,-2.29
2024-01-20T21:59:51.162Z,-2.26
2024-01-20T22:02:18.056Z,-2.23
2024-01-20T22:04:44.968Z,-2.18
2024-01-20T22:07:11.848Z,-2.15
2024-01-20T22:09:38.723Z,-2.12
2024-01-20T22:12:05.866Z,-2.12
2024-01-20T22:14:32.802Z,-2.09
2024-01-20T22:16:59.648Z,-2.08
2024-01-20T22:19:26.820Z,-2.07
2024-01-20T22:21:53.684Z,-2.05
2024-01-20T22:24:20.817Z,-2.03
2024-01-20T22:26:47.695Z,-2.00
2024-01-20T22:29:23.404Z,-1.98
2024-01-20T22:31:55.697Z,-1.96
2024-01-20T22:34:23.438Z,-1.93
2024-01-20T22:36:50.740Z,-1.92
2024-01-20T22:39:18.309Z,-1.90
2024-01-20T22:41:45.200Z,-1.89
2024-01-20T22:44:12.561Z,-1.87
2024-01-20T22:46:39.475Z,-1.86
2024-01-20T22:49:06.436Z,-1.84
2024-01-20T22:51:33.603Z,-1.83
2024-01-20T22:54:00.938Z,-1.81
2024-01-20T22:56:27.704Z,-1.82
2024-01-20T22:58:54.545Z,-1.82
2024-01-20T23:01:21.538Z,-1.81
2024-01-20T23:03:48.601Z,-1.82
2024-01-20T23:06:15.691Z,-1.83
2024-01-20T23:08:43.172Z,-1.84
2024-01-20T23:11:09.964Z,-1.83
2024-01-20T23:13:36.992Z,-1.80
2024-01-20T23:16:04.011Z,-1.79
2024-01-20T23:18:30.917Z,-1.80
2024-01-20T23:20:57.906Z,-1.77
2024-01-20T23:23:24.962Z,-1.76
2024-01-20T23:25:51.806Z,-1.75
2024-01-20T23:28:18.554Z,-1.74
2024-01-20T23:30:45.633Z,-1.74
2024-01-20T23:33:13.019Z,-1.74
2024-01-20T23:35:40.054Z,-1.73
2024-01-20T23:38:06.939Z,-1.72
2024-01-20T23:40:33.755Z,-1.72
2024-01-20T23:43:00.666Z,-1.71
2024-01-20T23:45:28.631Z,-1.68
2024-01-20T23:47:56.919Z,-1.68
2024-01-20T23:50:23.882Z,-1.68
2024-01-20T23:52:50.843Z,-1.69
2024-01-20T23:55:17.634Z,-1.70
2024-01-20T23:57:45.251Z,-1.68
